sensor_id;sensor_type;location;lat;lon;timestamp;P1;durP1;ratioP1;P2;durP2;ratioP2
5549;SDS011;2798;42.716;23.256;2024-01-16T00:01:26;7.33;;;5.40;;
5549;SDS011;2798;42.716;23.256;2024-01-16T00:03:51;8.83;;;6.00;;
5549;SDS011;2798;42.716;23.256;2024-01-16T00:06:17;7.83;;;6.03;;
5549;SDS011;2798;42.716;23.256;2024-01-16T00:08:42;8.60;;;5.87;;
5549;SDS011;2798;42.716;23.256;2024-01-16T00:11:08;8.30;;;5.40;;
5549;SDS011;2798;42.716;23.256;2024-01-16T00:13:34;11.57;;;6.10;;
5549;SDS011;2798;42.716;23.256;2024-01-16T00:16:01;7.30;;;5.30;;
5549;SDS011;2798;42.716;23.256;2024-01-16T00:18:28;8.03;;;5.27;;
5549;SDS011;2798;42.716;23.256;2024-01-16T00:20:54;8.83;;;5.33;;
5549;SDS011;2798;42.716;23.256;2024-01-16T00:23:20;8.03;;;5.70;;
5549;SDS011;2798;42.716;23.256;2024-01-16T00:25:45;11.10;;;6.00;;
5549;SDS011;2798;42.716;23.256;2024-01-16T00:28:11;7.30;;;5.60;;
5549;SDS011;2798;42.716;23.256;2024-01-16T00:30:36;7.50;;;5.20;;
5549;SDS011;2798;42.716;23.256;2024-01-16T00:33:02;7.60;;;5.90;;
5549;SDS011;2798;42.716;23.256;2024-01-16T00:35:27;7.90;;;5.90;;
5549;SDS011;2798;42.716;23.256;2024-01-16T00:37:53;8.30;;;5.87;;
5549;SDS011;2798;42.716;23.256;2024-01-16T00:40:18;8.67;;;5.30;;
5549;SDS011;2798;42.716;23.256;2024-01-16T00:42:44;6.30;;;4.60;;
5549;SDS011;2798;42.716;23.256;2024-01-16T00:45:09;8.40;;;5.20;;
5549;SDS011;2798;42.716;23.256;2024-01-16T00:47:35;5.23;;;4.43;;
5549;SDS011;2798;42.716;23.256;2024-01-16T00:50:01;6.77;;;5.10;;
5549;SDS011;2798;42.716;23.256;2024-01-16T00:52:27;5.70;;;4.40;;
5549;SDS011;2798;42.716;23.256;2024-01-16T00:54:53;4.20;;;3.80;;
5549;SDS011;2798;42.716;23.256;2024-01-16T00:57:18;9.57;;;4.87;;
5549;SDS011;2798;42.716;23.256;2024-01-16T00:59:45;6.17;;;4.90;;
5549;SDS011;2798;42.716;23.256;2024-01-16T01:02:11;5.60;;;4.53;;
5549;SDS011;2798;42.716;23.256;2024-01-16T01:04:37;6.43;;;5.03;;
5549;SDS011;2798;42.716;23.256;2024-01-16T01:07:02;7.27;;;4.60;;
5549;SDS011;2798;42.716;23.256;2024-01-16T01:09:28;7.07;;;4.60;;
5549;SDS011;2798;42.716;23.256;2024-01-16T01:11:54;8.03;;;4.63;;
5549;SDS011;2798;42.716;23.256;2024-01-16T01:14:20;6.80;;;4.60;;
5549;SDS011;2798;42.716;23.256;2024-01-16T01:16:45;6.20;;;4.40;;
5549;SDS011;2798;42.716;23.256;2024-01-16T01:19:11;8.00;;;5.33;;
5549;SDS011;2798;42.716;23.256;2024-01-16T01:21:37;5.30;;;4.10;;
5549;SDS011;2798;42.716;23.256;2024-01-16T01:24:03;5.40;;;4.73;;
5549;SDS011;2798;42.716;23.256;2024-01-16T01:26:28;9.43;;;5.17;;
5549;SDS011;2798;42.716;23.256;2024-01-16T01:28:54;6.37;;;4.87;;
5549;SDS011;2798;42.716;23.256;2024-01-16T01:31:19;5.87;;;4.87;;
5549;SDS011;2798;42.716;23.256;2024-01-16T01:33:45;8.13;;;4.87;;
5549;SDS011;2798;42.716;23.256;2024-01-16T01:36:10;6.60;;;5.10;;
5549;SDS011;2798;42.716;23.256;2024-01-16T01:38:36;7.53;;;5.30;;
5549;SDS011;2798;42.716;23.256;2024-01-16T01:41:01;7.33;;;5.00;;
5549;SDS011;2798;42.716;23.256;2024-01-16T01:43:27;6.33;;;5.10;;
5549;SDS011;2798;42.716;23.256;2024-01-16T01:48:43;7.70;;;4.90;;
5549;SDS011;2798;42.716;23.256;2024-01-16T01:51:11;7.80;;;5.43;;
5549;SDS011;2798;42.716;23.256;2024-01-16T01:53:38;9.83;;;5.40;;
5549;SDS011;2798;42.716;23.256;2024-01-16T01:56:05;8.40;;;5.77;;
5549;SDS011;2798;42.716;23.256;2024-01-16T01:58:33;6.80;;;5.50;;
5549;SDS011;2798;42.716;23.256;2024-01-16T02:01:01;6.80;;;4.73;;
5549;SDS011;2798;42.716;23.256;2024-01-16T02:03:29;6.83;;;4.80;;
5549;SDS011;2798;42.716;23.256;2024-01-16T02:05:57;8.47;;;5.83;;
5549;SDS011;2798;42.716;23.256;2024-01-16T02:08:24;9.57;;;6.53;;
5549;SDS011;2798;42.716;23.256;2024-01-16T02:10:49;9.67;;;6.07;;
5549;SDS011;2798;42.716;23.256;2024-01-16T02:13:15;8.87;;;5.47;;
5549;SDS011;2798;42.716;23.256;2024-01-16T02:15:45;9.73;;;6.17;;
5549;SDS011;2798;42.716;23.256;2024-01-16T02:18:10;7.33;;;5.43;;
5549;SDS011;2798;42.716;23.256;2024-01-16T02:20:36;8.97;;;5.90;;
5549;SDS011;2798;42.716;23.256;2024-01-16T02:23:03;7.43;;;5.73;;
5549;SDS011;2798;42.716;23.256;2024-01-16T02:25:29;7.33;;;5.80;;
5549;SDS011;2798;42.716;23.256;2024-01-16T02:27:55;7.27;;;5.77;;
5549;SDS011;2798;42.716;23.256;2024-01-16T02:30:21;7.77;;;5.67;;
5549;SDS011;2798;42.716;23.256;2024-01-16T02:32:46;11.60;;;7.63;;
5549;SDS011;2798;42.716;23.256;2024-01-16T02:35:12;11.50;;;7.60;;
5549;SDS011;2798;42.716;23.256;2024-01-16T02:37:38;9.17;;;7.30;;
5549;SDS011;2798;42.716;23.256;2024-01-16T02:40:04;10.17;;;7.50;;
5549;SDS011;2798;42.716;23.256;2024-01-16T02:42:34;11.67;;;6.93;;
5549;SDS011;2798;42.716;23.256;2024-01-16T02:45:01;10.13;;;7.20;;
5549;SDS011;2798;42.716;23.256;2024-01-16T02:47:28;10.33;;;6.60;;
5549;SDS011;2798;42.716;23.256;2024-01-16T02:49:54;6.83;;;5.43;;
5549;SDS011;2798;42.716;23.256;2024-01-16T02:52:21;8.80;;;6.33;;
5549;SDS011;2798;42.716;23.256;2024-01-16T02:54:46;10.10;;;7.60;;
5549;SDS011;2798;42.716;23.256;2024-01-16T02:57:12;8.30;;;5.67;;
5549;SDS011;2798;42.716;23.256;2024-01-16T02:59:37;6.73;;;4.80;;
5549;SDS011;2798;42.716;23.256;2024-01-16T03:02:03;5.47;;;3.77;;
5549;SDS011;2798;42.716;23.256;2024-01-16T03:04:29;3.53;;;3.03;;
5549;SDS011;2798;42.716;23.256;2024-01-16T03:06:54;2.90;;;2.53;;
5549;SDS011;2798;42.716;23.256;2024-01-16T03:09:20;2.60;;;2.40;;
5549;SDS011;2798;42.716;23.256;2024-01-16T03:11:45;2.30;;;2.10;;
5549;SDS011;2798;42.716;23.256;2024-01-16T03:14:11;2.40;;;2.20;;
5549;SDS011;2798;42.716;23.256;2024-01-16T03:16:39;2.27;;;2.10;;
5549;SDS011;2798;42.716;23.256;2024-01-16T03:19:05;3.90;;;2.87;;
5549;SDS011;2798;42.716;23.256;2024-01-16T03:21:30;2.97;;;2.53;;
5549;SDS011;2798;42.716;23.256;2024-01-16T03:23:56;3.90;;;3.10;;
5549;SDS011;2798;42.716;23.256;2024-01-16T03:26:21;3.23;;;2.70;;
5549;SDS011;2798;42.716;23.256;2024-01-16T03:28:47;3.20;;;2.90;;
5549;SDS011;2798;42.716;23.256;2024-01-16T03:31:13;2.83;;;2.23;;
5549;SDS011;2798;42.716;23.256;2024-01-16T03:33:41;3.00;;;2.70;;
5549;SDS011;2798;42.716;23.256;2024-01-16T03:36:08;3.70;;;3.00;;
5549;SDS011;2798;42.716;23.256;2024-01-16T03:38:35;2.83;;;2.63;;
5549;SDS011;2798;42.716;23.256;2024-01-16T03:41:02;4.50;;;2.60;;
5549;SDS011;2798;42.716;23.256;2024-01-16T03:43:29;2.53;;;2.33;;
5549;SDS011;2798;42.716;23.256;2024-01-16T03:45:57;2.80;;;2.53;;
5549;SDS011;2798;42.716;23.256;2024-01-16T03:48:23;2.50;;;2.30;;
5549;SDS011;2798;42.716;23.256;2024-01-16T03:50:48;2.53;;;2.33;;
5549;SDS011;2798;42.716;23.256;2024-01-16T03:53:14;2.30;;;2.10;;
5549;SDS011;2798;42.716;23.256;2024-01-16T03:55:39;2.30;;;2.10;;
5549;SDS011;2798;42.716;23.256;2024-01-16T03:58:05;2.10;;;2.00;;
5549;SDS011;2798;42.716;23.256;2024-01-16T04:00:30;1.87;;;1.77;;
5549;SDS011;2798;42.716;23.256;2024-01-16T04:02:56;2.27;;;2.07;;
5549;SDS011;2798;42.716;23.256;2024-01-16T04:05:21;2.47;;;1.90;;
5549;SDS011;2798;42.716;23.256;2024-01-16T04:07:47;2.10;;;1.90;;
5549;SDS011;2798;42.716;23.256;2024-01-16T04:10:12;2.10;;;1.90;;
5549;SDS011;2798;42.716;23.256;2024-01-16T04:12:38;1.77;;;1.67;;
5549;SDS011;2798;42.716;23.256;2024-01-16T04:15:03;2.20;;;2.00;;
5549;SDS011;2798;42.716;23.256;2024-01-16T04:17:29;1.70;;;1.63;;
5549;SDS011;2798;42.716;23.256;2024-01-16T04:19:55;1.93;;;1.70;;
5549;SDS011;2798;42.716;23.256;2024-01-16T04:22:20;1.50;;;1.40;;
5549;SDS011;2798;42.716;23.256;2024-01-16T04:24:46;1.50;;;1.40;;
5549;SDS011;2798;42.716;23.256;2024-01-16T04:27:12;1.47;;;1.37;;
5549;SDS011;2798;42.716;23.256;2024-01-16T04:29:38;1.60;;;1.50;;
5549;SDS011;2798;42.716;23.256;2024-01-16T04:32:04;1.80;;;1.70;;
5549;SDS011;2798;42.716;23.256;2024-01-16T04:34:29;1.77;;;1.67;;
5549;SDS011;2798;42.716;23.256;2024-01-16T04:36:55;1.40;;;1.30;;
5549;SDS011;2798;42.716;23.256;2024-01-16T04:39:20;1.23;;;1.13;;
5549;SDS011;2798;42.716;23.256;2024-01-16T04:41:48;1.10;;;1.10;;
5549;SDS011;2798;42.716;23.256;2024-01-16T04:44:16;1.37;;;1.27;;
5549;SDS011;2798;42.716;23.256;2024-01-16T04:46:41;1.57;;;1.47;;
5549;SDS011;2798;42.716;23.256;2024-01-16T04:49:07;1.00;;;0.97;;
5549;SDS011;2798;42.716;23.256;2024-01-16T04:51:33;1.00;;;1.00;;
5549;SDS011;2798;42.716;23.256;2024-01-16T04:53:59;1.50;;;1.40;;
5549;SDS011;2798;42.716;23.256;2024-01-16T04:56:24;1.27;;;1.23;;
5549;SDS011;2798;42.716;23.256;2024-01-16T04:58:50;1.20;;;1.20;;
5549;SDS011;2798;42.716;23.256;2024-01-16T05:01:17;6.67;;;1.20;;
5549;SDS011;2798;42.716;23.256;2024-01-16T05:03:42;1.00;;;1.00;;
5549;SDS011;2798;42.716;23.256;2024-01-16T05:06:14;1.20;;;1.10;;
5549;SDS011;2798;42.716;23.256;2024-01-16T05:08:41;1.20;;;1.10;;
5549;SDS011;2798;42.716;23.256;2024-01-16T05:11:07;1.00;;;1.00;;
5549;SDS011;2798;42.716;23.256;2024-01-16T05:13:33;1.03;;;1.03;;
5549;SDS011;2798;42.716;23.256;2024-01-16T05:15:58;1.00;;;1.00;;
5549;SDS011;2798;42.716;23.256;2024-01-16T05:18:24;1.20;;;1.20;;
5549;SDS011;2798;42.716;23.256;2024-01-16T05:20:49;1.17;;;1.00;;
5549;SDS011;2798;42.716;23.256;2024-01-16T05:23:15;1.87;;;1.20;;
5549;SDS011;2798;42.716;23.256;2024-01-16T05:25:40;1.23;;;1.23;;
5549;SDS011;2798;42.716;23.256;2024-01-16T05:28:06;1.33;;;1.23;;
5549;SDS011;2798;42.716;23.256;2024-01-16T05:30:32;1.23;;;1.07;;
5549;SDS011;2798;42.716;23.256;2024-01-16T05:32:58;1.20;;;1.10;;
5549;SDS011;2798;42.716;23.256;2024-01-16T05:35:29;1.20;;;1.13;;
5549;SDS011;2798;42.716;23.256;2024-01-16T05:37:55;1.10;;;1.10;;
5549;SDS011;2798;42.716;23.256;2024-01-16T05:40:21;1.13;;;1.10;;
5549;SDS011;2798;42.716;23.256;2024-01-16T05:42:48;1.50;;;1.17;;
5549;SDS011;2798;42.716;23.256;2024-01-16T05:45:14;1.63;;;1.17;;
5549;SDS011;2798;42.716;23.256;2024-01-16T05:47:40;1.40;;;1.30;;
5549;SDS011;2798;42.716;23.256;2024-01-16T05:50:06;1.10;;;1.00;;
5549;SDS011;2798;42.716;23.256;2024-01-16T05:52:32;1.10;;;1.00;;
5549;SDS011;2798;42.716;23.256;2024-01-16T05:54:57;1.23;;;1.17;;
5549;SDS011;2798;42.716;23.256;2024-01-16T05:57:24;0.80;;;0.80;;
5549;SDS011;2798;42.716;23.256;2024-01-16T05:59:51;1.20;;;1.10;;
5549;SDS011;2798;42.716;23.256;2024-01-16T06:02:16;1.97;;;1.30;;
5549;SDS011;2798;42.716;23.256;2024-01-16T06:04:42;3.57;;;1.60;;
5549;SDS011;2798;42.716;23.256;2024-01-16T06:07:07;2.00;;;1.50;;
5549;SDS011;2798;42.716;23.256;2024-01-16T06:09:33;1.77;;;1.50;;
5549;SDS011;2798;42.716;23.256;2024-01-16T06:12:03;1.33;;;1.20;;
5549;SDS011;2798;42.716;23.256;2024-01-16T06:14:29;1.40;;;1.30;;
5549;SDS011;2798;42.716;23.256;2024-01-16T06:16:54;2.20;;;1.30;;
5549;SDS011;2798;42.716;23.256;2024-01-16T06:19:20;1.90;;;1.60;;
5549;SDS011;2798;42.716;23.256;2024-01-16T06:21:46;1.27;;;1.23;;
5549;SDS011;2798;42.716;23.256;2024-01-16T06:24:11;1.03;;;1.00;;
5549;SDS011;2798;42.716;23.256;2024-01-16T06:26:38;1.50;;;1.37;;
5549;SDS011;2798;42.716;23.256;2024-01-16T06:29:04;1.00;;;1.00;;
5549;SDS011;2798;42.716;23.256;2024-01-16T06:31:29;1.43;;;1.33;;
5549;SDS011;2798;42.716;23.256;2024-01-16T06:33:55;1.63;;;1.50;;
5549;SDS011;2798;42.716;23.256;2024-01-16T06:36:20;1.10;;;1.00;;
5549;SDS011;2798;42.716;23.256;2024-01-16T06:38:46;1.50;;;1.40;;
5549;SDS011;2798;42.716;23.256;2024-01-16T06:41:11;1.30;;;1.20;;
5549;SDS011;2798;42.716;23.256;2024-01-16T06:43:37;1.20;;;1.00;;
5549;SDS011;2798;42.716;23.256;2024-01-16T06:46:02;1.33;;;1.23;;
5549;SDS011;2798;42.716;23.256;2024-01-16T06:48:28;1.20;;;1.10;;
5549;SDS011;2798;42.716;23.256;2024-01-16T06:50:54;1.23;;;1.13;;
5549;SDS011;2798;42.716;23.256;2024-01-16T06:53:19;1.20;;;1.20;;
5549;SDS011;2798;42.716;23.256;2024-01-16T06:55:45;1.00;;;1.00;;
5549;SDS011;2798;42.716;23.256;2024-01-16T06:58:10;1.63;;;1.50;;
5549;SDS011;2798;42.716;23.256;2024-01-16T07:00:38;1.33;;;1.10;;
5549;SDS011;2798;42.716;23.256;2024-01-16T07:03:06;1.40;;;1.20;;
5549;SDS011;2798;42.716;23.256;2024-01-16T07:05:32;1.00;;;1.00;;
5549;SDS011;2798;42.716;23.256;2024-01-16T07:07:57;1.13;;;1.10;;
5549;SDS011;2798;42.716;23.256;2024-01-16T07:10:23;1.03;;;0.93;;
5549;SDS011;2798;42.716;23.256;2024-01-16T07:12:49;1.60;;;1.50;;
5549;SDS011;2798;42.716;23.256;2024-01-16T07:15:16;2.17;;;1.97;;
5549;SDS011;2798;42.716;23.256;2024-01-16T07:17:43;2.33;;;2.00;;
5549;SDS011;2798;42.716;23.256;2024-01-16T07:20:09;2.10;;;2.00;;
5549;SDS011;2798;42.716;23.256;2024-01-16T07:22:36;4.67;;;1.87;;
5549;SDS011;2798;42.716;23.256;2024-01-16T07:25:02;1.90;;;1.77;;
5549;SDS011;2798;42.716;23.256;2024-01-16T07:27:28;2.03;;;1.40;;
5549;SDS011;2798;42.716;23.256;2024-01-16T07:29:53;3.13;;;1.30;;
5549;SDS011;2798;42.716;23.256;2024-01-16T07:32:19;1.13;;;1.10;;
5549;SDS011;2798;42.716;23.256;2024-01-16T07:34:44;1.03;;;1.03;;
5549;SDS011;2798;42.716;23.256;2024-01-16T07:37:10;1.30;;;1.17;;
5549;SDS011;2798;42.716;23.256;2024-01-16T07:39:35;1.77;;;1.30;;
5549;SDS011;2798;42.716;23.256;2024-01-16T07:42:01;1.20;;;1.10;;
5549;SDS011;2798;42.716;23.256;2024-01-16T07:44:26;1.70;;;1.30;;
5549;SDS011;2798;42.716;23.256;2024-01-16T07:46:52;1.43;;;1.30;;
5549;SDS011;2798;42.716;23.256;2024-01-16T07:49:17;1.43;;;1.33;;
5549;SDS011;2798;42.716;23.256;2024-01-16T07:51:43;1.13;;;1.13;;
5549;SDS011;2798;42.716;23.256;2024-01-16T07:54:09;1.50;;;1.40;;
5549;SDS011;2798;42.716;23.256;2024-01-16T07:56:35;1.87;;;1.33;;
5549;SDS011;2798;42.716;23.256;2024-01-16T07:59:02;1.30;;;1.10;;
5549;SDS011;2798;42.716;23.256;2024-01-16T08:01:28;1.50;;;1.40;;
5549;SDS011;2798;42.716;23.256;2024-01-16T08:03:57;1.40;;;1.30;;
5549;SDS011;2798;42.716;23.256;2024-01-16T08:06:23;12.13;;;1.90;;
5549;SDS011;2798;42.716;23.256;2024-01-16T08:08:49;1.50;;;1.40;;
5549;SDS011;2798;42.716;23.256;2024-01-16T08:11:15;1.80;;;1.37;;
5549;SDS011;2798;42.716;23.256;2024-01-16T08:13:41;2.03;;;1.57;;
5549;SDS011;2798;42.716;23.256;2024-01-16T08:16:07;2.63;;;1.60;;
5549;SDS011;2798;42.716;23.256;2024-01-16T08:18:33;3.13;;;2.30;;
5549;SDS011;2798;42.716;23.256;2024-01-16T08:20:59;3.10;;;2.20;;
5549;SDS011;2798;42.716;23.256;2024-01-16T08:23:25;2.00;;;1.90;;
5549;SDS011;2798;42.716;23.256;2024-01-16T08:25:50;3.23;;;2.30;;
5549;SDS011;2798;42.716;23.256;2024-01-16T08:28:17;1.40;;;1.30;;
5549;SDS011;2798;42.716;23.256;2024-01-16T08:30:43;1.33;;;1.13;;
5549;SDS011;2798;42.716;23.256;2024-01-16T08:33:09;1.50;;;1.40;;
5549;SDS011;2798;42.716;23.256;2024-01-16T08:35:37;1.50;;;1.40;;
5549;SDS011;2798;42.716;23.256;2024-01-16T08:38:02;1.40;;;1.30;;
5549;SDS011;2798;42.716;23.256;2024-01-16T08:40:28;1.47;;;1.20;;
5549;SDS011;2798;42.716;23.256;2024-01-16T08:42:54;1.20;;;1.13;;
5549;SDS011;2798;42.716;23.256;2024-01-16T08:45:22;1.00;;;1.00;;
5549;SDS011;2798;42.716;23.256;2024-01-16T08:47:48;2.20;;;1.13;;
5549;SDS011;2798;42.716;23.256;2024-01-16T08:50:14;1.10;;;1.10;;
5549;SDS011;2798;42.716;23.256;2024-01-16T08:52:40;2.30;;;1.13;;
5549;SDS011;2798;42.716;23.256;2024-01-16T08:55:07;1.30;;;1.20;;
5549;SDS011;2798;42.716;23.256;2024-01-16T08:57:34;1.00;;;1.00;;
5549;SDS011;2798;42.716;23.256;2024-01-16T08:59:59;2.40;;;1.00;;
5549;SDS011;2798;42.716;23.256;2024-01-16T09:02:25;1.00;;;1.00;;
5549;SDS011;2798;42.716;23.256;2024-01-16T09:04:54;1.60;;;1.20;;
5549;SDS011;2798;42.716;23.256;2024-01-16T09:07:20;1.80;;;1.30;;
5549;SDS011;2798;42.716;23.256;2024-01-16T09:09:45;1.10;;;1.10;;
5549;SDS011;2798;42.716;23.256;2024-01-16T09:12:11;1.10;;;1.10;;
5549;SDS011;2798;42.716;23.256;2024-01-16T09:14:37;1.40;;;1.30;;
5549;SDS011;2798;42.716;23.256;2024-01-16T09:17:02;1.03;;;1.03;;
5549;SDS011;2798;42.716;23.256;2024-01-16T09:19:28;1.10;;;1.00;;
5549;SDS011;2798;42.716;23.256;2024-01-16T09:21:54;1.30;;;1.20;;
5549;SDS011;2798;42.716;23.256;2024-01-16T09:24:20;1.37;;;1.27;;
5549;SDS011;2798;42.716;23.256;2024-01-16T09:26:46;1.17;;;1.07;;
5549;SDS011;2798;42.716;23.256;2024-01-16T09:29:11;1.30;;;1.20;;
5549;SDS011;2798;42.716;23.256;2024-01-16T09:31:37;1.60;;;1.50;;
5549;SDS011;2798;42.716;23.256;2024-01-16T09:34:03;1.17;;;0.90;;
5549;SDS011;2798;42.716;23.256;2024-01-16T09:36:29;2.30;;;1.10;;
5549;SDS011;2798;42.716;23.256;2024-01-16T09:38:55;0.97;;;0.97;;
5549;SDS011;2798;42.716;23.256;2024-01-16T09:41:20;1.20;;;1.10;;
5549;SDS011;2798;42.716;23.256;2024-01-16T09:43:46;0.93;;;0.93;;
5549;SDS011;2798;42.716;23.256;2024-01-16T09:46:12;1.00;;;1.00;;
5549;SDS011;2798;42.716;23.256;2024-01-16T09:48:41;1.20;;;1.10;;
5549;SDS011;2798;42.716;23.256;2024-01-16T09:51:10;3.23;;;1.90;;
5549;SDS011;2798;42.716;23.256;2024-01-16T09:53:40;7.57;;;3.03;;
5549;SDS011;2798;42.716;23.256;2024-01-16T09:56:06;6.90;;;3.00;;
5549;SDS011;2798;42.716;23.256;2024-01-16T09:58:39;5.23;;;2.57;;
5549;SDS011;2798;42.716;23.256;2024-01-16T10:01:05;6.00;;;2.73;;
5549;SDS011;2798;42.716;23.256;2024-01-16T10:03:31;6.03;;;3.30;;
5549;SDS011;2798;42.716;23.256;2024-01-16T10:05:59;3.87;;;2.70;;
5549;SDS011;2798;42.716;23.256;2024-01-16T10:08:31;3.60;;;1.93;;
5549;SDS011;2798;42.716;23.256;2024-01-16T10:10:57;3.70;;;2.40;;
5549;SDS011;2798;42.716;23.256;2024-01-16T10:13:25;3.00;;;2.47;;
5549;SDS011;2798;42.716;23.256;2024-01-16T10:15:51;1.67;;;1.57;;
5549;SDS011;2798;42.716;23.256;2024-01-16T10:18:26;2.30;;;1.70;;
5549;SDS011;2798;42.716;23.256;2024-01-16T10:20:55;3.23;;;1.80;;
5549;SDS011;2798;42.716;23.256;2024-01-16T10:23:24;1.53;;;1.43;;
5549;SDS011;2798;42.716;23.256;2024-01-16T10:26:06;1.53;;;1.43;;
5549;SDS011;2798;42.716;23.256;2024-01-16T10:28:36;6.03;;;1.63;;
5549;SDS011;2798;42.716;23.256;2024-01-16T10:31:04;1.50;;;1.40;;
5549;SDS011;2798;42.716;23.256;2024-01-16T10:33:30;1.40;;;1.30;;
5549;SDS011;2798;42.716;23.256;2024-01-16T10:36:14;1.60;;;1.50;;
5549;SDS011;2798;42.716;23.256;2024-01-16T10:38:46;1.90;;;1.30;;
5549;SDS011;2798;42.716;23.256;2024-01-16T10:41:15;1.50;;;1.40;;
5549;SDS011;2798;42.716;23.256;2024-01-16T10:43:50;1.63;;;1.53;;
5549;SDS011;2798;42.716;23.256;2024-01-16T10:46:29;1.87;;;1.57;;
5549;SDS011;2798;42.716;23.256;2024-01-16T10:49:01;1.20;;;1.10;;
5549;SDS011;2798;42.716;23.256;2024-01-16T10:51:28;1.47;;;1.37;;
5549;SDS011;2798;42.716;23.256;2024-01-16T10:54:04;1.97;;;1.30;;
5549;SDS011;2798;42.716;23.256;2024-01-16T10:56:31;1.33;;;1.23;;
5549;SDS011;2798;42.716;23.256;2024-01-16T10:59:11;1.47;;;1.37;;
5549;SDS011;2798;42.716;23.256;2024-01-16T11:01:43;1.10;;;1.10;;
5549;SDS011;2798;42.716;23.256;2024-01-16T11:04:13;1.40;;;1.13;;
5549;SDS011;2798;42.716;23.256;2024-01-16T11:06:40;2.63;;;1.70;;
5549;SDS011;2798;42.716;23.256;2024-01-16T11:09:07;1.10;;;1.00;;
5549;SDS011;2798;42.716;23.256;2024-01-16T11:11:34;1.77;;;1.50;;
5549;SDS011;2798;42.716;23.256;2024-01-16T11:14:03;1.37;;;1.27;;
5549;SDS011;2798;42.716;23.256;2024-01-16T11:16:30;1.90;;;1.50;;
5549;SDS011;2798;42.716;23.256;2024-01-16T11:18:57;4.10;;;1.70;;
5549;SDS011;2798;42.716;23.256;2024-01-16T11:21:23;2.00;;;1.70;;
5549;SDS011;2798;42.716;23.256;2024-01-16T11:23:49;1.60;;;1.50;;
5549;SDS011;2798;42.716;23.256;2024-01-16T11:26:29;2.00;;;1.60;;
5549;SDS011;2798;42.716;23.256;2024-01-16T11:28:59;2.00;;;1.83;;
5549;SDS011;2798;42.716;23.256;2024-01-16T11:31:33;1.90;;;1.80;;
5549;SDS011;2798;42.716;23.256;2024-01-16T11:34:00;1.50;;;1.30;;
5549;SDS011;2798;42.716;23.256;2024-01-16T11:36:59;1.60;;;1.50;;
5549;SDS011;2798;42.716;23.256;2024-01-16T11:39:25;2.90;;;1.77;;
5549;SDS011;2798;42.716;23.256;2024-01-16T11:41:54;2.20;;;1.80;;
5549;SDS011;2798;42.716;23.256;2024-01-16T11:47:18;2.13;;;1.70;;
5549;SDS011;2798;42.716;23.256;2024-01-16T11:49:51;3.33;;;1.80;;
5549;SDS011;2798;42.716;23.256;2024-01-16T11:52:41;1.73;;;1.63;;
5549;SDS011;2798;42.716;23.256;2024-01-16T11:56:10;1.58;;;1.48;;
5549;SDS011;2798;42.716;23.256;2024-01-16T12:01:03;1.30;;;1.20;;
5549;SDS011;2798;42.716;23.256;2024-01-16T12:03:30;1.93;;;1.60;;
5549;SDS011;2798;42.716;23.256;2024-01-16T12:05:57;1.53;;;1.20;;
5549;SDS011;2798;42.716;23.256;2024-01-16T12:08:23;3.43;;;1.30;;
5549;SDS011;2798;42.716;23.256;2024-01-16T12:10:49;1.83;;;1.50;;
5549;SDS011;2798;42.716;23.256;2024-01-16T12:13:15;1.53;;;1.40;;
5549;SDS011;2798;42.716;23.256;2024-01-16T12:15:41;2.50;;;1.43;;
5549;SDS011;2798;42.716;23.256;2024-01-16T12:18:07;1.30;;;1.20;;
5549;SDS011;2798;42.716;23.256;2024-01-16T12:20:33;1.43;;;1.30;;
5549;SDS011;2798;42.716;23.256;2024-01-16T12:23:04;1.70;;;1.60;;
5549;SDS011;2798;42.716;23.256;2024-01-16T12:25:36;1.70;;;1.30;;
5549;SDS011;2798;42.716;23.256;2024-01-16T12:28:06;4.20;;;1.87;;
5549;SDS011;2798;42.716;23.256;2024-01-16T12:30:36;1.60;;;1.50;;
5549;SDS011;2798;42.716;23.256;2024-01-16T12:35:38;4.17;;;2.00;;
5549;SDS011;2798;42.716;23.256;2024-01-16T12:38:06;2.13;;;1.80;;
5549;SDS011;2798;42.716;23.256;2024-01-16T12:40:36;1.63;;;1.53;;
5549;SDS011;2798;42.716;23.256;2024-01-16T12:43:03;3.07;;;1.70;;
5549;SDS011;2798;42.716;23.256;2024-01-16T12:45:29;2.23;;;1.43;;
5549;SDS011;2798;42.716;23.256;2024-01-16T12:47:56;1.50;;;1.40;;
5549;SDS011;2798;42.716;23.256;2024-01-16T12:50:28;2.80;;;2.40;;
5549;SDS011;2798;42.716;23.256;2024-01-16T12:53:06;3.93;;;2.20;;
5549;SDS011;2798;42.716;23.256;2024-01-16T12:55:34;1.67;;;1.57;;
5549;SDS011;2798;42.716;23.256;2024-01-16T12:58:19;4.10;;;2.10;;
5549;SDS011;2798;42.716;23.256;2024-01-16T13:00:46;2.60;;;1.67;;
5549;SDS011;2798;42.716;23.256;2024-01-16T13:03:16;4.10;;;1.70;;
5549;SDS011;2798;42.716;23.256;2024-01-16T13:05:54;2.27;;;2.07;;
5549;SDS011;2798;42.716;23.256;2024-01-16T13:08:21;2.57;;;1.67;;
5549;SDS011;2798;42.716;23.256;2024-01-16T13:11:10;3.63;;;2.00;;
5549;SDS011;2798;42.716;23.256;2024-01-16T13:13:35;1.33;;;1.23;;
5549;SDS011;2798;42.716;23.256;2024-01-16T13:16:02;4.20;;;1.63;;
5549;SDS011;2798;42.716;23.256;2024-01-16T13:18:32;2.00;;;1.77;;
5549;SDS011;2798;42.716;23.256;2024-01-16T13:20:59;1.40;;;1.30;;
5549;SDS011;2798;42.716;23.256;2024-01-16T13:23:26;1.40;;;1.30;;
5549;SDS011;2798;42.716;23.256;2024-01-16T13:25:52;1.67;;;1.47;;
5549;SDS011;2798;42.716;23.256;2024-01-16T13:28:20;2.30;;;1.77;;
5549;SDS011;2798;42.716;23.256;2024-01-16T13:30:47;2.97;;;1.77;;
5549;SDS011;2798;42.716;23.256;2024-01-16T13:33:13;2.33;;;2.03;;
5549;SDS011;2798;42.716;23.256;2024-01-16T13:35:41;2.60;;;1.77;;
5549;SDS011;2798;42.716;23.256;2024-01-16T13:38:08;1.80;;;1.70;;
5549;SDS011;2798;42.716;23.256;2024-01-16T13:40:34;2.77;;;1.80;;
5549;SDS011;2798;42.716;23.256;2024-01-16T13:43:01;2.20;;;1.70;;
5549;SDS011;2798;42.716;23.256;2024-01-16T13:45:27;1.90;;;1.80;;
5549;SDS011;2798;42.716;23.256;2024-01-16T13:47:53;2.37;;;1.63;;
5549;SDS011;2798;42.716;23.256;2024-01-16T13:50:20;2.00;;;1.50;;
5549;SDS011;2798;42.716;23.256;2024-01-16T13:52:45;3.93;;;1.87;;
5549;SDS011;2798;42.716;23.256;2024-01-16T13:55:11;1.53;;;1.43;;
5549;SDS011;2798;42.716;23.256;2024-01-16T13:57:37;1.80;;;1.70;;
5549;SDS011;2798;42.716;23.256;2024-01-16T14:00:03;4.00;;;2.23;;
5549;SDS011;2798;42.716;23.256;2024-01-16T14:02:29;1.70;;;1.60;;
5549;SDS011;2798;42.716;23.256;2024-01-16T14:04:55;4.13;;;1.60;;
5549;SDS011;2798;42.716;23.256;2024-01-16T14:07:21;2.97;;;1.80;;
5549;SDS011;2798;42.716;23.256;2024-01-16T14:09:47;1.97;;;1.80;;
5549;SDS011;2798;42.716;23.256;2024-01-16T14:12:13;2.47;;;1.70;;
5549;SDS011;2798;42.716;23.256;2024-01-16T14:14:39;1.40;;;1.30;;
5549;SDS011;2798;42.716;23.256;2024-01-16T14:17:06;1.93;;;1.60;;
5549;SDS011;2798;42.716;23.256;2024-01-16T14:19:34;3.93;;;1.77;;
5549;SDS011;2798;42.716;23.256;2024-01-16T14:22:00;1.53;;;1.43;;
5549;SDS011;2798;42.716;23.256;2024-01-16T14:24:26;1.57;;;1.47;;
5549;SDS011;2798;42.716;23.256;2024-01-16T14:26:51;1.70;;;1.60;;
5549;SDS011;2798;42.716;23.256;2024-01-16T14:29:17;5.53;;;2.00;;
5549;SDS011;2798;42.716;23.256;2024-01-16T14:31:43;1.80;;;1.70;;
5549;SDS011;2798;42.716;23.256;2024-01-16T14:34:12;1.70;;;1.60;;
5549;SDS011;2798;42.716;23.256;2024-01-16T14:36:40;2.20;;;2.00;;
5549;SDS011;2798;42.716;23.256;2024-01-16T14:39:06;2.23;;;2.03;;
5549;SDS011;2798;42.716;23.256;2024-01-16T14:41:38;2.90;;;2.30;;
5549;SDS011;2798;42.716;23.256;2024-01-16T14:44:04;2.67;;;2.20;;
5549;SDS011;2798;42.716;23.256;2024-01-16T14:46:31;2.53;;;2.23;;
5549;SDS011;2798;42.716;23.256;2024-01-16T14:48:58;2.07;;;1.90;;
5549;SDS011;2798;42.716;23.256;2024-01-16T14:51:23;2.20;;;2.00;;
5549;SDS011;2798;42.716;23.256;2024-01-16T14:53:49;5.50;;;2.57;;
5549;SDS011;2798;42.716;23.256;2024-01-16T14:56:14;7.50;;;2.03;;
5549;SDS011;2798;42.716;23.256;2024-01-16T14:58:40;3.07;;;2.13;;
5549;SDS011;2798;42.716;23.256;2024-01-16T15:01:05;2.17;;;2.00;;
5549;SDS011;2798;42.716;23.256;2024-01-16T15:03:32;2.63;;;2.30;;
5549;SDS011;2798;42.716;23.256;2024-01-16T15:05:57;1.90;;;1.80;;
5549;SDS011;2798;42.716;23.256;2024-01-16T15:08:23;2.10;;;1.90;;
5549;SDS011;2798;42.716;23.256;2024-01-16T15:10:51;2.33;;;1.80;;